createdAt,value
2022-09-18T00:01:31.889Z,12.60
2022-09-18T00:04:02.079Z,12.60
2022-09-18T00:06:32.763Z,12.60
2022-09-18T00:09:01.434Z,12.60
2022-09-18T00:11:33.251Z,12.60
2022-09-18T00:14:00.558Z,12.70
2022-09-18T00:16:28.044Z,12.60
2022-09-18T00:18:56.167Z,12.60
2022-09-18T00:21:25.139Z,12.60
2022-09-18T00:23:55.631Z,12.60
2022-09-18T00:26:25.676Z,12.60
2022-09-18T00:28:54.471Z,12.60
2022-09-18T00:31:25.745Z,12.60
2022-09-18T00:33:53.890Z,12.60
2022-09-18T00:36:21.737Z,12.60
2022-09-18T00:38:49.665Z,12.70
2022-09-18T00:41:29.382Z,12.70
2022-09-18T00:44:36.976Z,12.70
2022-09-18T00:47:17.311Z,12.60
2022-09-18T00:49:56.576Z,12.60
2022-09-18T00:52:28.040Z,12.60
2022-09-18T00:55:07.573Z,12.60
2022-09-18T00:57:40.288Z,12.60
2022-09-18T01:00:12.211Z,12.60
2022-09-18T01:02:44.423Z,12.60
2022-09-18T01:05:14.118Z,12.60
2022-09-18T01:07:59.950Z,12.60
2022-09-18T01:10:48.910Z,12.60
2022-09-18T01:13:36.712Z,12.50
2022-09-18T01:16:20.143Z,12.50
2022-09-18T01:19:20.130Z,12.50
2022-09-18T01:22:10.358Z,12.50
2022-09-18T01:25:06.639Z,12.50
2022-09-18T01:27:58.408Z,12.50
2022-09-18T01:30:25.649Z,12.50
2022-09-18T01:32:56.692Z,12.50
2022-09-18T01:35:42.208Z,12.50
2022-09-18T01:38:23.517Z,12.50
2022-09-18T01:41:23.665Z,12.50
2022-09-18T01:43:58.615Z,12.60
2022-09-18T01:46:26.153Z,12.50
2022-09-18T01:49:13.226Z,12.50
2022-09-18T01:52:10.338Z,12.50
2022-09-18T01:54:43.346Z,12.50
2022-09-18T01:57:36.442Z,12.50
2022-09-18T02:00:11.555Z,12.50
2022-09-18T02:02:52.801Z,12.50
2022-09-18T02:05:31.841Z,12.50
2022-09-18T02:08:16.998Z,12.50
2022-09-18T02:10:51.443Z,12.50
2022-09-18T02:13:26.158Z,12.50
2022-09-18T02:16:00.594Z,12.50
2022-09-18T02:18:34.666Z,12.50
2022-09-18T02:21:10.982Z,12.50
2022-09-18T02:23:41.092Z,12.50
2022-09-18T02:26:11.630Z,12.50
2022-09-18T02:28:41.552Z,12.50
2022-09-18T02:31:08.808Z,12.50
2022-09-18T02:33:37.222Z,12.50
2022-09-18T02:36:22.751Z,12.50
2022-09-18T02:39:13.794Z,12.50
2022-09-18T02:41:49.693Z,12.50
2022-09-18T02:44:47.607Z,12.50
2022-09-18T02:47:47.083Z,12.50
2022-09-18T02:50:21.299Z,12.50
2022-09-18T02:52:54.956Z,12.50
2022-09-18T02:55:35.903Z,12.50
2022-09-18T02:58:09.911Z,12.50
2022-09-18T03:00:41.838Z,12.50
2022-09-18T03:03:19.055Z,12.50
2022-09-18T03:05:53.239Z,12.50
2022-09-18T03:08:20.550Z,12.50
2022-09-18T03:10:47.812Z,12.50
2022-09-18T03:13:15.482Z,12.50
2022-09-18T03:15:42.818Z,12.50
2022-09-18T03:18:10.862Z,12.50
2022-09-18T03:20:41.710Z,12.50
2022-09-18T03:23:10.613Z,12.50
2022-09-18T03:25:37.850Z,12.50
2022-09-18T03:28:06.245Z,12.50
2022-09-18T03:30:37.640Z,12.50
2022-09-18T03:33:05.783Z,12.50
2022-09-18T03:35:33.463Z,12.50
2022-09-18T03:38:00.709Z,12.50
2022-09-18T03:40:31.157Z,12.50
2022-09-18T03:43:00.848Z,12.50
2022-09-18T03:45:28.773Z,12.50
2022-09-18T03:47:56.642Z,12.50
2022-09-18T03:50:24.882Z,12.50
2022-09-18T03:52:52.794Z,12.50
2022-09-18T03:55:43.094Z,12.50
2022-09-18T03:58:28.886Z,12.40
2022-09-18T04:01:14.926Z,12.40
2022-09-18T04:04:08.766Z,12.40
2022-09-18T04:07:08.238Z,12.40
2022-09-18T04:09:50.617Z,12.40
2022-09-18T04:12:17.998Z,12.40
2022-09-18T04:14:50.416Z,12.40
2022-09-18T04:17:17.968Z,12.40
2022-09-18T04:19:45.148Z,12.40
2022-09-18T04:22:12.468Z,12.40
2022-09-18T04:24:39.836Z,12.40
2022-09-18T04:27:07.985Z,12.40
2022-09-18T04:29:35.316Z,12.40
2022-09-18T04:32:02.908Z,12.40
2022-09-18T04:34:30.228Z,12.40
2022-09-18T04:36:57.418Z,12.40
2022-09-18T04:39:28.347Z,12.40
2022-09-18T04:41:59.748Z,12.40
2022-09-18T04:44:27.157Z,12.40
2022-09-18T04:46:54.554Z,12.40
2022-09-18T04:49:22.096Z,12.40
2022-09-18T04:51:49.457Z,12.40
2022-09-18T04:54:16.717Z,12.40
2022-09-18T04:56:44.902Z,12.40
2022-09-18T04:59:12.793Z,12.40
2022-09-18T05:01:44.516Z,12.40
2022-09-18T05:04:13.540Z,12.40
2022-09-18T05:06:50.150Z,12.40
2022-09-18T05:09:18.743Z,12.40
2022-09-18T05:11:46.021Z,12.40
2022-09-18T05:14:13.527Z,12.40
2022-09-18T05:16:45.068Z,12.40
2022-09-18T05:19:24.339Z,12.40
2022-09-18T05:21:56.013Z,12.40
2022-09-18T05:24:23.391Z,12.40
2022-09-18T05:26:51.445Z,12.50
2022-09-18T05:29:21.254Z,12.40
2022-09-18T05:31:50.202Z,12.40
2022-09-18T05:34:17.505Z,12.40
2022-09-18T05:36:46.395Z,12.50
2022-09-18T05:39:17.423Z,12.50
2022-09-18T05:41:49.728Z,12.50
2022-09-18T05:44:18.110Z,12.50
2022-09-18T05:46:49.928Z,12.50
2022-09-18T05:49:17.834Z,12.50
2022-09-18T05:51:46.411Z,12.50
2022-09-18T05:54:15.539Z,12.60
2022-09-18T05:56:47.301Z,12.60
2022-09-18T05:59:14.916Z,12.60
2022-09-18T06:01:47.120Z,12.60
2022-09-18T06:04:17.341Z,12.60
2022-09-18T06:07:01.736Z,12.60
2022-09-18T06:09:29.571Z,12.60
2022-09-18T06:11:57.782Z,12.60
2022-09-18T06:14:25.446Z,12.60
2022-09-18T06:16:53.732Z,12.60
2022-09-18T06:19:21.162Z,12.60
2022-09-18T06:21:48.986Z,12.60
2022-09-18T06:24:18.641Z,12.70
2022-09-18T06:27:00.927Z,12.70
2022-09-18T06:29:28.247Z,12.70
2022-09-18T06:32:01.928Z,12.70
2022-09-18T06:34:29.188Z,12.70
2022-09-18T06:37:01.981Z,12.80
2022-09-18T06:39:55.360Z,12.80
2022-09-18T06:42:33.054Z,12.80
2022-09-18T06:45:07.837Z,12.80
2022-09-18T06:47:35.513Z,12.90
2022-09-18T06:50:03.197Z,12.90
2022-09-18T06:52:31.601Z,13.00
2022-09-18T06:55:02.068Z,13.00
2022-09-18T06:57:33.292Z,13.00
2022-09-18T07:00:00.602Z,13.00
2022-09-18T07:02:32.814Z,13.10
2022-09-18T07:05:38.493Z,13.10
2022-09-18T07:08:05.788Z,13.10
2022-09-18T07:10:36.533Z,13.10
2022-09-18T07:13:04.352Z,13.20
2022-09-18T07:15:38.329Z,13.20
2022-09-18T07:18:09.841Z,13.30
2022-09-18T07:20:37.988Z,13.30
2022-09-18T07:23:05.335Z,13.30
2022-09-18T07:25:46.104Z,13.40
2022-09-18T07:28:13.620Z,13.40
2022-09-18T07:30:47.442Z,13.40
2022-09-18T07:33:15.666Z,13.50
2022-09-18T07:35:47.666Z,13.50
2022-09-18T07:38:16.915Z,13.50
2022-09-18T07:40:52.620Z,13.50
2022-09-18T07:43:42.793Z,13.50
2022-09-18T07:46:10.968Z,13.50
2022-09-18T07:48:39.797Z,13.50
2022-09-18T07:51:12.620Z,13.50
2022-09-18T07:53:42.786Z,13.60
2022-09-18T07:56:11.572Z,13.60
2022-09-18T07:58:39.945Z,13.60
2022-09-18T08:01:21.306Z,13.70
2022-09-18T08:03:52.912Z,13.70
2022-09-18T08:06:20.358Z,13.80
2022-09-18T08:08:56.009Z,13.90
2022-09-18T08:11:43.492Z,14.00
2022-09-18T08:14:29.917Z,14.10
2022-09-18T08:17:15.508Z,14.10
2022-09-18T08:20:01.758Z,14.10
2022-09-18T08:22:47.624Z,14.20
2022-09-18T08:25:15.589Z,14.20
2022-09-18T08:27:46.241Z,14.20
2022-09-18T08:30:17.429Z,14.30
2022-09-18T08:32:47.166Z,14.30
2022-09-18T08:35:14.440Z,14.30
2022-09-18T08:37:49.004Z,14.40
2022-09-18T08:41:00.707Z,14.40
2022-09-18T08:43:39.028Z,14.50
2022-09-18T08:46:15.791Z,14.60
2022-09-18T08:49:16.619Z,14.60
2022-09-18T08:51:49.864Z,14.70
2022-09-18T08:54:57.760Z,14.70
2022-09-18T08:58:01.651Z,14.60
2022-09-18T09:00:37.306Z,14.60
2022-09-18T09:03:46.927Z,14.60
2022-09-18T09:06:36.064Z,14.60
2022-09-18T09:09:22.620Z,14.60
2022-09-18T09:12:26.359Z,14.60
2022-09-18T09:15:36.534Z,14.70
2022-09-18T09:18:34.382Z,14.70
2022-09-18T09:21:30.063Z,14.70
2022-09-18T09:24:06.326Z,14.70
2022-09-18T09:26:55.150Z,14.60
2022-09-18T09:30:12.029Z,14.50
2022-09-18T09:33:31.127Z,14.50
2022-09-18T09:36:13.758Z,14.40
2022-09-18T09:39:15.234Z,14.30
2022-09-18T09:41:48.998Z,14.30
2022-09-18T09:44:47.297Z,14.30
2022-09-18T09:47:28.806Z,14.30
2022-09-18T09:50:05.811Z,14.30
2022-09-18T09:52:38.814Z,14.40
2022-09-18T09:55:12.973Z,14.40
2022-09-18T09:58:04.510Z,14.50
2022-09-18T10:01:07.455Z,14.60
2022-09-18T10:04:08.610Z,14.80
2022-09-18T10:07:04.185Z,15.00
2022-09-18T10:09:50.145Z,15.10
2022-09-18T10:12:35.652Z,15.10
2022-09-18T10:15:17.034Z,15.00
2022-09-18T10:17:49.290Z,15.00
2022-09-18T10:20:30.256Z,14.90
2022-09-18T10:23:06.472Z,14.80
2022-09-18T10:25:50.078Z,14.70
2022-09-18T10:28:17.685Z,14.70
2022-09-18T10:30:59.843Z,14.70
2022-09-18T10:33:41.088Z,14.70
2022-09-18T10:36:33.578Z,14.70
2022-09-18T10:39:18.871Z,14.70
2022-09-18T10:41:48.860Z,14.70
2022-09-18T10:44:22.565Z,14.70
2022-09-18T10:46:56.484Z,14.70
2022-09-18T10:49:36.052Z,14.70
2022-09-18T10:52:36.927Z,14.70
2022-09-18T10:55:16.816Z,14.80
2022-09-18T10:58:14.506Z,14.80
2022-09-18T11:00:50.169Z,14.70
2022-09-18T11:03:52.826Z,14.70
2022-09-18T11:06:29.700Z,14.60
2022-09-18T11:09:02.430Z,14.50
2022-09-18T11:11:37.447Z,14.50
2022-09-18T11:14:20.703Z,14.50
2022-09-18T11:17:01.316Z,14.50
2022-09-18T11:19:38.839Z,14.50
2022-09-18T11:22:43.561Z,14.50
2022-09-18T11:25:28.144Z,14.60
2022-09-18T11:28:01.351Z,14.60
2022-09-18T11:30:38.615Z,14.70
2022-09-18T11:33:27.085Z,14.70
2022-09-18T11:36:05.158Z,14.70
2022-09-18T11:38:40.084Z,14.70
2022-09-18T11:41:08.878Z,14.80
2022-09-18T11:43:43.581Z,14.80
2022-09-18T11:46:42.094Z,14.80
2022-09-18T11:49:28.158Z,14.80
2022-09-18T11:52:03.881Z,14.70
2022-09-18T11:55:02.156Z,14.70
2022-09-18T11:57:51.966Z,14.70
2022-09-18T12:00:22.388Z,14.70
2022-09-18T12:03:29.238Z,14.70
2022-09-18T12:06:20.823Z,14.70
2022-09-18T12:08:55.486Z,14.70
2022-09-18T12:11:30.158Z,14.70
2022-09-18T12:14:09.798Z,14.80
2022-09-18T12:17:24.919Z,14.80
2022-09-18T12:19:56.615Z,14.90
2022-09-18T12:22:37.137Z,15.10
2022-09-18T12:25:12.979Z,15.20
2022-09-18T12:28:12.691Z,15.30
2022-09-18T12:30:54.223Z,15.30
2022-09-18T12:33:37.507Z,15.40
2022-09-18T12:36:40.587Z,15.50
2022-09-18T12:39:39.190Z,15.50
2022-09-18T12:42:26.392Z,15.50
2022-09-18T12:45:35.599Z,15.50
2022-09-18T12:48:19.295Z,15.50
2022-09-18T12:51:08.599Z,15.50
2022-09-18T12:53:45.770Z,15.40
2022-09-18T12:56:48.238Z,15.30
2022-09-18T12:59:27.247Z,15.20
2022-09-18T13:02:16.242Z,15.10
2022-09-18T13:05:01.911Z,15.00
2022-09-18T13:07:37.293Z,14.90
2022-09-18T13:10:14.623Z,14.80
2022-09-18T13:12:58.024Z,14.60
2022-09-18T13:15:27.155Z,14.60
2022-09-18T13:18:22.426Z,14.50
2022-09-18T13:20:50.808Z,14.40
2022-09-18T13:23:43.414Z,14.40
2022-09-18T13:26:14.724Z,14.40
2022-09-18T13:28:43.239Z,14.40
2022-09-18T13:31:33.497Z,14.40
2022-09-18T13:34:00.998Z,14.40
2022-09-18T13:36:29.538Z,14.40
2022-09-18T13:39:04.888Z,14.40
2022-09-18T13:41:51.305Z,14.40
2022-09-18T13:44:22.342Z,14.40
2022-09-18T13:46:52.494Z,14.40
2022-09-18T13:49:33.029Z,14.40
2022-09-18T13:52:35.234Z,14.40
2022-09-18T13:55:28.481Z,14.40
2022-09-18T13:58:35.907Z,14.40
2022-09-18T14:01:09.284Z,14.40
2022-09-18T14:03:41.083Z,14.40
2022-09-18T14:06:54.015Z,14.30
2022-09-18T14:09:54.760Z,14.30
2022-09-18T14:12:23.428Z,14.30
2022-09-18T14:15:21.683Z,14.20
2022-09-18T14:18:15.480Z,14.20
2022-09-18T14:20:52.253Z,14.10
2022-09-18T14:23:35.445Z,14.10
2022-09-18T14:26:08.585Z,14.10
2022-09-18T14:28:37.855Z,14.10
2022-09-18T14:31:23.926Z,14.10
2022-09-18T14:33:51.172Z,14.00
2022-09-18T14:36:18.497Z,14.00
2022-09-18T14:38:45.703Z,13.90
2022-09-18T14:41:20.982Z,13.90
2022-09-18T14:44:00.921Z,13.90
2022-09-18T14:46:29.021Z,13.80
2022-09-18T14:48:56.535Z,13.80
2022-09-18T14:51:26.841Z,13.80
2022-09-18T14:53:59.240Z,13.80
2022-09-18T14:56:35.316Z,13.80
2022-09-18T14:59:13.818Z,13.80
2022-09-18T15:01:41.106Z,13.70
2022-09-18T15:04:15.310Z,13.70
2022-09-18T15:06:47.330Z,13.70
2022-09-18T15:09:20.144Z,13.70
2022-09-18T15:12:01.906Z,13.70
2022-09-18T15:14:39.910Z,13.70
2022-09-18T15:17:19.674Z,13.70
2022-09-18T15:20:00.392Z,13.70
2022-09-18T15:22:29.015Z,13.70
2022-09-18T15:25:00.663Z,13.70
2022-09-18T15:27:29.898Z,13.70
2022-09-18T15:30:02.959Z,13.70
2022-09-18T15:32:38.134Z,13.60
2022-09-18T15:35:08.740Z,13.60
2022-09-18T15:37:38.220Z,13.60
2022-09-18T15:40:17.701Z,13.60
2022-09-18T15:43:03.730Z,13.50
2022-09-18T15:45:36.172Z,13.50
2022-09-18T15:48:34.370Z,13.50
2022-09-18T15:54:14.699Z,13.50
2022-09-18T15:57:00.175Z,13.50
2022-09-18T15:59:36.967Z,13.50
2022-09-18T16:02:37.515Z,13.50
2022-09-18T16:05:14.895Z,13.50
2022-09-18T16:07:58.140Z,13.50
2022-09-18T16:10:49.495Z,13.40
2022-09-18T16:13:16.715Z,13.40
2022-09-18T16:15:47.465Z,13.40
2022-09-18T16:18:27.116Z,13.30
2022-09-18T16:20:54.954Z,13.30
2022-09-18T16:23:47.634Z,13.20
2022-09-18T16:26:24.458Z,13.10
2022-09-18T16:29:02.656Z,13.10
2022-09-18T16:31:32.943Z,13.10
2022-09-18T16:34:23.772Z,13.00
2022-09-18T16:36:52.048Z,12.90
2022-09-18T16:39:24.546Z,12.90
2022-09-18T16:41:52.507Z,12.90
2022-09-18T16:44:19.785Z,12.80
2022-09-18T16:46:52.368Z,12.80
2022-09-18T16:49:28.168Z,12.80
2022-09-18T16:51:55.790Z,12.80
2022-09-18T16:54:23.310Z,12.70
2022-09-18T16:56:55.276Z,12.70
2022-09-18T16:59:26.205Z,12.60
2022-09-18T17:02:03.760Z,12.60
2022-09-18T17:04:33.127Z,12.50
2022-09-18T17:07:00.846Z,12.50
2022-09-18T17:09:28.306Z,12.50
2022-09-18T17:11:57.343Z,12.50
2022-09-18T17:14:25.297Z,12.50
2022-09-18T17:16:53.063Z,12.40
2022-09-18T17:19:20.856Z,12.40
2022-09-18T17:21:48.124Z,12.40
2022-09-18T17:24:16.584Z,12.40
2022-09-18T17:26:44.932Z,12.40
2022-09-18T17:29:12.217Z,12.40
2022-09-18T17:31:39.680Z,12.40
2022-09-18T17:34:07.293Z,12.40
2022-09-18T17:36:36.749Z,12.30
2022-09-18T17:39:04.634Z,12.30
2022-09-18T17:41:33.295Z,12.30
2022-09-18T17:44:00.648Z,12.30
2022-09-18T17:46:28.145Z,12.40
2022-09-18T17:48:56.940Z,12.40
2022-09-18T17:51:28.366Z,12.40
2022-09-18T17:53:59.210Z,12.40
2022-09-18T17:56:29.906Z,12.40
2022-09-18T17:59:11.281Z,12.40
2022-09-18T18:01:43.139Z,12.30
2022-09-18T18:04:10.484Z,12.30
2022-09-18T18:06:38.033Z,12.30
2022-09-18T18:09:07.207Z,12.20
2022-09-18T18:11:34.627Z,12.20
2022-09-18T18:14:01.938Z,12.10
2022-09-18T18:16:30.915Z,12.10
2022-09-18T18:19:01.524Z,12.00
2022-09-18T18:21:30.171Z,12.00
2022-09-18T18:24:03.727Z,12.00
2022-09-18T18:26:31.156Z,11.90
2022-09-18T18:28:58.633Z,11.80
2022-09-18T18:31:26.115Z,11.80
2022-09-18T18:33:55.556Z,11.80
2022-09-18T18:36:28.127Z,11.70
2022-09-18T18:38:57.873Z,11.70
2022-09-18T18:41:28.877Z,11.60
2022-09-18T18:44:01.771Z,11.60
2022-09-18T18:46:30.553Z,11.60
2022-09-18T18:49:02.821Z,11.60
2022-09-18T18:51:47.958Z,11.50
2022-09-18T18:54:17.994Z,11.50
2022-09-18T18:56:46.226Z,11.50
2022-09-18T18:59:16.574Z,11.50
2022-09-18T19:01:44.337Z,11.50
2022-09-18T19:04:14.278Z,11.50
2022-09-18T19:06:43.556Z,11.50
2022-09-18T19:09:20.637Z,11.50
2022-09-18T19:11:49.545Z,11.50
2022-09-18T19:14:18.104Z,11.50
2022-09-18T19:16:46.458Z,11.50
2022-09-18T19:19:15.667Z,11.50
2022-09-18T19:21:43.252Z,11.50
2022-09-18T19:24:11.812Z,11.50
2022-09-18T19:26:41.075Z,11.50
2022-09-18T19:29:12.225Z,11.40
2022-09-18T19:31:42.590Z,11.40
2022-09-18T19:34:12.615Z,11.40
2022-09-18T19:36:40.240Z,11.40
2022-09-18T19:39:10.557Z,11.30
2022-09-18T19:41:55.920Z,11.30
2022-09-18T19:44:46.103Z,11.20
2022-09-18T19:47:29.899Z,11.20
2022-09-18T19:49:59.538Z,11.10
2022-09-18T19:52:28.605Z,11.10
2022-09-18T19:54:57.586Z,11.10
2022-09-18T19:57:27.445Z,11.00
2022-09-18T19:59:57.033Z,10.90
2022-09-18T20:02:25.370Z,10.80
2022-09-18T20:04:52.910Z,10.80
2022-09-18T20:07:20.389Z,10.80
2022-09-18T20:09:47.598Z,10.70
2022-09-18T20:12:14.853Z,10.70
2022-09-18T20:14:42.110Z,10.70
2022-09-18T20:17:09.907Z,10.60
2022-09-18T20:19:37.805Z,10.60
2022-09-18T20:22:05.833Z,10.60
2022-09-18T20:24:33.252Z,10.60
2022-09-18T20:27:01.138Z,10.50
2022-09-18T20:29:29.129Z,10.50
2022-09-18T20:31:57.970Z,10.50
2022-09-18T20:34:25.640Z,10.50
2022-09-18T20:36:54.385Z,10.50
2022-09-18T20:39:21.762Z,10.40
2022-09-18T20:41:50.321Z,10.50
2022-09-18T20:44:19.514Z,10.40
2022-09-18T20:46:46.970Z,10.40
2022-09-18T20:49:17.327Z,10.40
2022-09-18T20:51:44.694Z,10.30
2022-09-18T20:54:14.572Z,10.40
2022-09-18T20:56:44.489Z,10.40
2022-09-18T20:59:15.945Z,10.40
2022-09-18T21:01:44.310Z,10.40
2022-09-18T21:04:17.089Z,10.40
2022-09-18T21:06:46.473Z,10.50
2022-09-18T21:09:14.356Z,10.40
2022-09-18T21:11:43.345Z,10.40
2022-09-18T21:14:15.582Z,10.40
2022-09-18T21:16:45.148Z,10.40
2022-09-18T21:19:14.930Z,10.30
2022-09-18T21:21:42.352Z,10.30
2022-09-18T21:24:09.917Z,10.30
2022-09-18T21:26:37.079Z,10.40
2022-09-18T21:29:10.342Z,10.30
2022-09-18T21:31:41.076Z,10.30
2022-09-18T21:34:14.325Z,10.30
2022-09-18T21:36:45.034Z,10.30
2022-09-18T21:39:14.216Z,10.30
2022-09-18T21:41:46.229Z,10.20
2022-09-18T21:44:21.498Z,10.30
2022-09-18T21:46:49.724Z,10.20
2022-09-18T21:49:17.063Z,10.20
2022-09-18T21:51:45.031Z,10.20
2022-09-18T21:54:20.268Z,10.20
2022-09-18T21:56:49.207Z,10.20
2022-09-18T21:59:16.416Z,10.20
2022-09-18T22:01:43.759Z,10.20
2022-09-18T22:04:12.328Z,10.20
2022-09-18T22:06:45.886Z,10.20
2022-09-18T22:09:31.369Z,10.20
2022-09-18T22:11:59.923Z,10.20
2022-09-18T22:14:31.347Z,10.20
2022-09-18T22:17:00.878Z,10.10
2022-09-18T22:19:29.240Z,10.20
2022-09-18T22:21:56.547Z,10.20
2022-09-18T22:24:25.585Z,10.20
2022-09-18T22:26:57.532Z,10.20
2022-09-18T22:29:30.147Z,10.20
2022-09-18T22:31:59.260Z,10.20
2022-09-18T22:34:29.210Z,10.20
2022-09-18T22:36:58.120Z,10.20
2022-09-18T22:39:25.735Z,10.20
2022-09-18T22:41:53.283Z,10.20
2022-09-18T22:44:23.780Z,10.10
2022-09-18T22:46:52.643Z,10.10
2022-09-18T22:49:21.362Z,10.10
2022-09-18T22:51:48.834Z,10.10
2022-09-18T22:54:17.038Z,10.10
2022-09-18T22:56:47.063Z,10.10
2022-09-18T22:59:16.479Z,10.10
2022-09-18T23:02:05.833Z,10.10
2022-09-18T23:04:34.284Z,10.10
2022-09-18T23:07:02.445Z,10.10
2022-09-18T23:09:30.347Z,10.10
2022-09-18T23:11:58.610Z,10.10
2022-09-18T23:14:27.973Z,10.10
2022-09-18T23:16:55.775Z,10.10
2022-09-18T23:19:28.417Z,10.10
2022-09-18T23:21:56.011Z,10.10
2022-09-18T23:24:24.011Z,10.10
2022-09-18T23:26:53.853Z,10.10
2022-09-18T23:29:22.929Z,10.10
2022-09-18T23:31:57.443Z,10.10
2022-09-18T23:34:29.466Z,10.10
2022-09-18T23:36:58.441Z,10.10
2022-09-18T23:39:31.341Z,10.10
2022-09-18T23:42:01.292Z,10.10
2022-09-18T23:44:30.004Z,10.10
2022-09-18T23:46:57.938Z,10.10
2022-09-18T23:49:25.155Z,10.10
2022-09-18T23:51:53.930Z,10.10
2022-09-18T23:54:26.751Z,10.10
2022-09-18T23:56:54.565Z,10.20
2022-09-18T23:59:23.583Z,10.10
